www.cux-wetter.de
Wetterdaten: Montag, 08.01.2007
Datum Zeit Temp. A. Feuchte A. Luftdruck Regen Wind Richtung Richtung Sonnenschein Solar Taupunkt Windchill Windben
08.01.2007 00:00 8,2 C 90 % 1006,5 hPa 0,0 l/m 35,7 km/h (5 Bft) W-SW 245 0 min 0 W/m 6,7 C -3,0 C 35,7 km/h (5 Bft)
08.01.2007 00:15 8,2 C 90 % 1006,5 hPa 0,0 l/m 34,1 km/h (5 Bft) W-SW 250 0 min 0 W/m 6,7 C -2,7 C 34,1 km/h (5 Bft)
08.01.2007 00:30 8,2 C 89 % 1006,5 hPa 0,0 l/m 33,6 km/h (5 Bft) W-SW 250 0 min 0 W/m 6,5 C -2,6 C 33,6 km/h (5 Bft)
08.01.2007 00:45 8,2 C 89 % 1006,5 hPa 0,0 l/m 32,6 km/h (5 Bft) W-SW 255 0 min 0 W/m 6,5 C -2,4 C 32,6 km/h (5 Bft)
08.01.2007 01:00 8,1 C 88 % 1006,5 hPa 0,0 l/m 33,7 km/h (5 Bft) W-SW 250 0 min 0 W/m 6,2 C -2,8 C 33,7 km/h (5 Bft)
08.01.2007 01:15 7,8 C 89 % 1005,5 hPa 0,0 l/m 27,6 km/h (5 Bft) W-SW 245 0 min 0 W/m 6,1 C -1,9 C 27,6 km/h (5 Bft)
08.01.2007 01:30 7,4 C 90 % 1005,5 hPa 0,0 l/m 26,1 km/h (4 Bft) SW 230 0 min 0 W/m 5,9 C -2,0 C 26,1 km/h (4 Bft)
08.01.2007 01:45 7,3 C 90 % 1005,5 hPa 0,0 l/m 26,6 km/h (4 Bft) SW 235 0 min 0 W/m 5,8 C -2,3 C 26,6 km/h (4 Bft)
08.01.2007 02:00 7,2 C 90 % 1004,5 hPa 0,0 l/m 26,4 km/h (4 Bft) W-SW 245 0 min 0 W/m 5,7 C -2,4 C 26,4 km/h (4 Bft)
08.01.2007 02:15 7,1 C 90 % 1004,5 hPa 0,0 l/m 28,6 km/h (5 Bft) SW 230 0 min 0 W/m 5,6 C -3,1 C 28,6 km/h (5 Bft)
08.01.2007 02:30 7,0 C 90 % 1004,5 hPa 0,0 l/m 29,1 km/h (5 Bft) W-SW 240 0 min 0 W/m 5,5 C -3,3 C 29,1 km/h (5 Bft)
08.01.2007 02:45 7,2 C 90 % 1003,5 hPa 0,0 l/m 24,7 km/h (4 Bft) SW 230 0 min 0 W/m 5,7 C -1,9 C 24,7 km/h (4 Bft)
08.01.2007 03:00 7,2 C 89 % 1003,5 hPa 0,0 l/m 34,0 km/h (5 Bft) SW 225 0 min 0 W/m 5,5 C -4,2 C 34,0 km/h (5 Bft)
08.01.2007 03:15 7,2 C 89 % 1003,5 hPa 0,0 l/m 25,7 km/h (4 Bft) SW 225 0 min 0 W/m 5,5 C -2,2 C 25,7 km/h (4 Bft)
08.01.2007 03:30 7,1 C 89 % 1003,5 hPa 0,0 l/m 29,5 km/h (5 Bft) SW 230 0 min 0 W/m 5,4 C -3,3 C 29,5 km/h (5 Bft)
08.01.2007 03:45 7,1 C 88 % 1002,5 hPa 0,0 l/m 27,0 km/h (5 Bft) SW 215 0 min 0 W/m 5,2 C -2,7 C 27,0 km/h (5 Bft)
08.01.2007 04:00 7,1 C 88 % 1002,5 hPa 0,0 l/m 28,7 km/h (5 Bft) S-SW 210 0 min 0 W/m 5,2 C -3,1 C 28,7 km/h (5 Bft)
08.01.2007 04:15 7,1 C 87 % 1002,5 hPa 0,0 l/m 23,3 km/h (4 Bft) SW 215 0 min 0 W/m 5,1 C -1,6 C 23,3 km/h (4 Bft)
08.01.2007 04:30 7,1 C 87 % 1001,5 hPa 0,0 l/m 33,8 km/h (5 Bft) S-SW 205 0 min 0 W/m 5,1 C -4,3 C 33,8 km/h (5 Bft)
08.01.2007 04:45 7,2 C 87 % 1001,5 hPa 0,0 l/m 28,5 km/h (5 Bft) S-SW 205 0 min 0 W/m 5,2 C -2,9 C 28,5 km/h (5 Bft)
08.01.2007 05:00 7,9 C 84 % 1001,5 hPa 0,0 l/m 31,9 km/h (5 Bft) SW 220 0 min 0 W/m 5,4 C -2,7 C 31,9 km/h (5 Bft)
08.01.2007 05:15 8,0 C 82 % 1001,5 hPa 0,0 l/m 28,9 km/h (5 Bft) SW 225 0 min 0 W/m 5,1 C -1,9 C 28,9 km/h (5 Bft)
08.01.2007 05:30 8,0 C 82 % 1000,5 hPa 0,0 l/m 26,1 km/h (4 Bft) SW 225 0 min 0 W/m 5,1 C -1,2 C 26,1 km/h (4 Bft)
08.01.2007 05:45 7,9 C 82 % 1000,5 hPa 0,0 l/m 30,7 km/h (5 Bft) SW 215 0 min 0 W/m 5,0 C -2,5 C 30,7 km/h (5 Bft)
08.01.2007 06:00 8,0 C 83 % 1000,5 hPa 0,0 l/m 27,6 km/h (5 Bft) SW 235 0 min 0 W/m 5,3 C -1,6 C 27,6 km/h (5 Bft)
08.01.2007 06:15 8,0 C 82 % 999,5 hPa 0,0 l/m 34,0 km/h (5 Bft) SW 220 0 min 0 W/m 5,1 C -3,0 C 34,0 km/h (5 Bft)
08.01.2007 06:30 7,9 C 83 % 999,5 hPa 0,0 l/m 33,5 km/h (5 Bft) SW 225 0 min 0 W/m 5,2 C -3,1 C 33,5 km/h (5 Bft)
08.01.2007 06:45 7,9 C 84 % 999,5 hPa 0,0 l/m 30,5 km/h (5 Bft) S-SW 210 0 min 0 W/m 5,4 C -2,4 C 30,5 km/h (5 Bft)
08.01.2007 07:00 7,9 C 85 % 999,5 hPa 0,0 l/m 34,2 km/h (5 Bft) SW 225 0 min 0 W/m 5,5 C -3,2 C 34,2 km/h (5 Bft)
08.01.2007 07:15 7,8 C 85 % 998,5 hPa 0,0 l/m 35,0 km/h (5 Bft) S-SW 200 0 min 0 W/m 5,4 C -3,5 C 35,0 km/h (5 Bft)
08.01.2007 07:30 7,9 C 83 % 998,5 hPa 0,0 l/m 34,7 km/h (5 Bft) S-SW 205 0 min 0 W/m 5,2 C -3,3 C 34,7 km/h (5 Bft)
08.01.2007 07:45 7,9 C 83 % 998,5 hPa 0,0 l/m 31,5 km/h (5 Bft) S-SW 205 0 min 0 W/m 5,2 C -2,6 C 31,5 km/h (5 Bft)
08.01.2007 08:00 8,0 C 83 % 998,5 hPa 0,0 l/m 34,7 km/h (5 Bft) SW 215 0 min 0 W/m 5,3 C -3,1 C 34,7 km/h (5 Bft)
08.01.2007 08:15 7,9 C 86 % 997,5 hPa 0,3 l/m 30,6 km/h (5 Bft) SW 215 0 min 0 W/m 5,7 C -2,4 C 30,6 km/h (5 Bft)
08.01.2007 08:30 7,9 C 87 % 997,5 hPa 0,0 l/m 36,6 km/h (5 Bft) S-SW 210 0 min 0 W/m 5,9 C -3,6 C 36,6 km/h (5 Bft)
08.01.2007 08:45 7,9 C 87 % 997,5 hPa 0,0 l/m 40,0 km/h (6 Bft) SW 230 0 min 0 W/m 5,9 C -4,2 C 40,0 km/h (6 Bft)
08.01.2007 09:00 8,2 C 87 % 997,5 hPa 0,0 l/m 32,2 km/h (5 Bft) W-SW 240 0 min 0 W/m 6,2 C -2,4 C 32,2 km/h (5 Bft)
08.01.2007 09:15 7,9 C 89 % 997,5 hPa 0,3 l/m 33,0 km/h (5 Bft) SW 220 0 min 0 W/m 6,2 C -3,0 C 33,0 km/h (5 Bft)
08.01.2007 09:30 8,0 C 91 % 997,5 hPa 0,0 l/m 29,3 km/h (5 Bft) SW 225 0 min 0 W/m 6,6 C -2,0 C 29,3 km/h (5 Bft)
08.01.2007 09:45 8,0 C 91 % 996,5 hPa 0,3 l/m 36,4 km/h (5 Bft) SW 215 0 min 0 W/m 6,6 C -3,5 C 36,4 km/h (5 Bft)
08.01.2007 10:00 8,1 C 92 % 996,5 hPa 0,3 l/m 41,0 km/h (6 Bft) SW 225 0 min 0 W/m 6,9 C -4,1 C 41,0 km/h (6 Bft)
08.01.2007 10:15 8,2 C 93 % 996,5 hPa 0,3 l/m 35,1 km/h (5 Bft) SW 225 0 min 0 W/m 7,1 C -2,9 C 35,1 km/h (5 Bft)
08.01.2007 10:30 8,3 C 93 % 996,5 hPa 0,3 l/m 35,0 km/h (5 Bft) SW 235 0 min 0 W/m 7,2 C -2,8 C 35,0 km/h (5 Bft)
08.01.2007 10:45 8,5 C 93 % 996,5 hPa 0,6 l/m 33,1 km/h (5 Bft) SW 220 0 min 0 W/m 7,4 C -2,1 C 33,1 km/h (5 Bft)
08.01.2007 11:00 8,6 C 93 % 996,5 hPa 0,3 l/m 32,5 km/h (5 Bft) W-SW 240 0 min 0 W/m 7,5 C -1,8 C 32,5 km/h (5 Bft)
08.01.2007 11:15 8,7 C 93 % 996,5 hPa 0,3 l/m 38,6 km/h (6 Bft) W-SW 250 0 min 0 W/m 7,6 C -2,8 C 38,6 km/h (6 Bft)
08.01.2007 11:30 8,7 C 94 % 996,5 hPa 0,3 l/m 41,7 km/h (6 Bft) W-SW 245 0 min 0 W/m 7,8 C -3,3 C 41,7 km/h (6 Bft)
08.01.2007 11:45 8,7 C 95 % 996,5 hPa 0,0 l/m 47,7 km/h (6 Bft) W-SW 255 0 min 0 W/m 7,9 C -4,1 C 47,7 km/h (6 Bft)
08.01.2007 12:00 8,8 C 94 % 997,5 hPa 0,0 l/m 41,1 km/h (6 Bft) W 260 0 min 0 W/m 7,9 C -3,1 C 41,1 km/h (6 Bft)
08.01.2007 12:15 9,0 C 93 % 997,5 hPa 0,0 l/m 33,6 km/h (5 Bft) W 265 0 min 0 W/m 7,9 C -1,5 C 33,6 km/h (5 Bft)
08.01.2007 12:30 9,1 C 91 % 997,5 hPa 0,0 l/m 27,0 km/h (5 Bft) W 260 0 min 0 W/m 7,7 C 0,1 C 27,0 km/h (5 Bft)
08.01.2007 12:45 8,7 C 94 % 997,5 hPa 0,0 l/m 23,3 km/h (4 Bft) W 270 0 min 0 W/m 7,8 C 0,6 C 23,3 km/h (4 Bft)
08.01.2007 13:00 8,4 C 94 % 997,5 hPa 0,0 l/m 21,3 km/h (4 Bft) W 275 0 min 0 W/m 7,5 C 0,8 C 21,3 km/h (4 Bft)
08.01.2007 13:15 8,6 C 94 % 997,5 hPa 0,0 l/m 22,9 km/h (4 Bft) W 275 0 min 0 W/m 7,7 C 0,5 C 22,9 km/h (4 Bft)
08.01.2007 13:30 8,4 C 92 % 997,5 hPa 0,0 l/m 22,4 km/h (4 Bft) W 275 0 min 0 W/m 7,2 C 0,4 C 22,4 km/h (4 Bft)
08.01.2007 13:45 8,6 C 91 % 998,5 hPa 0,0 l/m 27,1 km/h (5 Bft) W 280 0 min 0 W/m 7,2 C -0,6 C 27,1 km/h (5 Bft)
08.01.2007 14:00 8,4 C 90 % 998,5 hPa 0,0 l/m 22,0 km/h (4 Bft) W 275 0 min 0 W/m 6,9 C 0,6 C 22,0 km/h (4 Bft)
08.01.2007 14:15 8,3 C 89 % 998,5 hPa 0,0 l/m 20,7 km/h (4 Bft) W 260 0 min 0 W/m 6,6 C 0,9 C 20,7 km/h (4 Bft)
08.01.2007 14:30 8,2 C 89 % 998,5 hPa 0,0 l/m 24,8 km/h (4 Bft) W 270 0 min 0 W/m 6,5 C -0,6 C 24,8 km/h (4 Bft)
08.01.2007 14:45 8,2 C 90 % 998,5 hPa 0,0 l/m 26,3 km/h (4 Bft) W 280 0 min 0 W/m 6,7 C -1,0 C 26,3 km/h (4 Bft)
08.01.2007 15:00 8,4 C 89 % 998,5 hPa 0,0 l/m 25,3 km/h (4 Bft) W 275 0 min 0 W/m 6,7 C -0,4 C 25,3 km/h (4 Bft)
08.01.2007 15:15 7,9 C 89 % 999,5 hPa 0,0 l/m 23,9 km/h (4 Bft) W 260 0 min 0 W/m 6,2 C -0,7 C 23,9 km/h (4 Bft)
08.01.2007 15:30 7,8 C 89 % 999,5 hPa 0,0 l/m 30,3 km/h (5 Bft) W 260 0 min 0 W/m 6,1 C -2,5 C 30,3 km/h (5 Bft)
08.01.2007 15:45 7,7 C 89 % 999,5 hPa 0,0 l/m 30,1 km/h (5 Bft) W 260 0 min 0 W/m 6,0 C -2,6 C 30,1 km/h (5 Bft)
08.01.2007 16:00 7,6 C 88 % 999,5 hPa 0,0 l/m 31,0 km/h (5 Bft) W 270 0 min 0 W/m 5,7 C -2,9 C 31,0 km/h (5 Bft)
08.01.2007 16:15 7,4 C 89 % 999,5 hPa 0,0 l/m 32,7 km/h (5 Bft) W 260 0 min 0 W/m 5,7 C -3,6 C 32,7 km/h (5 Bft)
08.01.2007 16:30 7,2 C 89 % 999,5 hPa 0,0 l/m 32,4 km/h (5 Bft) W 260 0 min 0 W/m 5,5 C -3,8 C 32,4 km/h (5 Bft)
08.01.2007 16:45 7,2 C 88 % 999,5 hPa 0,0 l/m 29,5 km/h (5 Bft) W 265 0 min 0 W/m 5,3 C -3,2 C 29,5 km/h (5 Bft)
08.01.2007 17:00 7,2 C 89 % 1000,5 hPa 0,0 l/m 30,2 km/h (5 Bft) W-SW 255 0 min 0 W/m 5,5 C -3,3 C 30,2 km/h (5 Bft)
08.01.2007 17:15 7,2 C 88 % 1000,5 hPa 0,0 l/m 26,2 km/h (4 Bft) W 260 0 min 0 W/m 5,3 C -2,3 C 26,2 km/h (4 Bft)
08.01.2007 17:30 7,2 C 88 % 1000,5 hPa 0,0 l/m 31,7 km/h (5 Bft) W-SW 250 0 min 0 W/m 5,3 C -3,7 C 31,7 km/h (5 Bft)
08.01.2007 17:45 7,0 C 88 % 1000,5 hPa 0,0 l/m 33,1 km/h (5 Bft) W-SW 250 0 min 0 W/m 5,2 C -4,3 C 33,1 km/h (5 Bft)
08.01.2007 18:00 7,1 C 88 % 1000,5 hPa 0,0 l/m 32,0 km/h (5 Bft) W-SW 250 0 min 0 W/m 5,2 C -3,9 C 32,0 km/h (5 Bft)
08.01.2007 18:15 7,0 C 88 % 1000,5 hPa 0,0 l/m 27,8 km/h (5 Bft) W-SW 255 0 min 0 W/m 5,2 C -3,0 C 27,8 km/h (5 Bft)
08.01.2007 18:30 6,6 C 89 % 1000,5 hPa 0,0 l/m 23,2 km/h (4 Bft) W-SW 240 0 min 0 W/m 4,9 C -2,2 C 23,2 km/h (4 Bft)
08.01.2007 18:45 6,4 C 91 % 1000,5 hPa 0,0 l/m 20,7 km/h (4 Bft) W-SW 245 0 min 0 W/m 5,0 C -1,6 C 20,7 km/h (4 Bft)
08.01.2007 19:00 6,2 C 91 % 1000,5 hPa 0,0 l/m 24,1 km/h (4 Bft) W-SW 250 0 min 0 W/m 4,8 C -3,0 C 24,1 km/h (4 Bft)
08.01.2007 19:15 6,1 C 91 % 999,5 hPa 0,0 l/m 26,2 km/h (4 Bft) W-SW 245 0 min 0 W/m 4,7 C -3,8 C 26,2 km/h (4 Bft)
08.01.2007 19:30 6,0 C 91 % 999,5 hPa 0,0 l/m 17,3 km/h (3 Bft) SW 230 0 min 0 W/m 4,6 C -0,8 C 17,3 km/h (3 Bft)
08.01.2007 19:45 5,7 C 92 % 999,5 hPa 0,0 l/m 18,1 km/h (3 Bft) S-SW 205 0 min 0 W/m 4,5 C -1,5 C 18,1 km/h (3 Bft)
08.01.2007 20:00 5,6 C 93 % 999,5 hPa 0,0 l/m 17,6 km/h (3 Bft) SW 215 0 min 0 W/m 4,6 C -1,4 C 17,6 km/h (3 Bft)
08.01.2007 20:15 5,8 C 94 % 999,5 hPa 0,0 l/m 18,5 km/h (3 Bft) SW 225 0 min 0 W/m 4,9 C -1,5 C 18,5 km/h (3 Bft)
08.01.2007 20:30 6,2 C 93 % 999,5 hPa 0,0 l/m 23,8 km/h (4 Bft) SW 230 0 min 0 W/m 5,2 C -2,9 C 23,8 km/h (4 Bft)
08.01.2007 20:45 6,5 C 92 % 999,5 hPa 0,0 l/m 23,1 km/h (4 Bft) SW 225 0 min 0 W/m 5,3 C -2,3 C 23,1 km/h (4 Bft)
08.01.2007 21:00 6,7 C 92 % 998,5 hPa 0,0 l/m 26,5 km/h (4 Bft) SW 230 0 min 0 W/m 5,5 C -3,1 C 26,5 km/h (4 Bft)
08.01.2007 21:15 6,8 C 92 % 998,5 hPa 0,0 l/m 28,8 km/h (5 Bft) SW 225 0 min 0 W/m 5,6 C -3,5 C 28,8 km/h (5 Bft)
08.01.2007 21:30 6,9 C 92 % 998,5 hPa 0,0 l/m 26,7 km/h (4 Bft) SW 230 0 min 0 W/m 5,7 C -2,9 C 26,7 km/h (4 Bft)
08.01.2007 21:45 7,1 C 92 % 998,5 hPa 0,0 l/m 26,3 km/h (4 Bft) SW 230 0 min 0 W/m 5,9 C -2,5 C 26,3 km/h (4 Bft)
08.01.2007 22:00 7,2 C 92 % 998,5 hPa 0,0 l/m 24,7 km/h (4 Bft) SW 230 0 min 0 W/m 6,0 C -1,9 C 24,7 km/h (4 Bft)
08.01.2007 22:15 7,2 C 94 % 998,5 hPa 0,6 l/m 27,6 km/h (5 Bft) SW 225 0 min 0 W/m 6,3 C -2,7 C 27,6 km/h (5 Bft)
08.01.2007 22:30 7,2 C 95 % 998,5 hPa 0,3 l/m 20,1 km/h (4 Bft) SW 230 0 min 0 W/m 6,5 C -0,4 C 20,1 km/h (4 Bft)
08.01.2007 22:45 7,2 C 95 % 997,5 hPa 0,3 l/m 26,9 km/h (4 Bft) SW 225 0 min 0 W/m 6,5 C -2,5 C 26,9 km/h (4 Bft)
08.01.2007 23:00 7,3 C 96 % 997,5 hPa 0,3 l/m 25,4 km/h (4 Bft) SW 225 0 min 0 W/m 6,7 C -1,9 C 25,4 km/h (4 Bft)
08.01.2007 23:15 7,3 C 96 % 997,5 hPa 0,3 l/m 27,7 km/h (5 Bft) S-SW 205 0 min 0 W/m 6,7 C -2,6 C 27,7 km/h (5 Bft)
08.01.2007 23:30 7,4 C 97 % 996,5 hPa 0,3 l/m 30,1 km/h (5 Bft) S-SW 210 0 min 0 W/m 7,0 C -3,0 C 30,1 km/h (5 Bft)
08.01.2007 23:45 7,5 C 97 % 996,5 hPa 0,0 l/m 31,2 km/h (5 Bft) S-SW 200 0 min 0 W/m 7,1 C -3,1 C 31,2 km/h (5 Bft)
_ Min-Zeit 20:00 05:15 09:45 - 19:30 - - - - 19:45 04:30 19:30
Minimum _ 5,6 C 82 % 996,5 hPa - 17,3 km/h (3 Bft) - - - - 4,5 C -4,3 C 17,3 km/h (3 Bft)
_ Max-Zeit 12:30 23:30 00:00 10:45 11:45 - - 00:00 00:00 11:45 14:15 11:45
Maximum _ 9,1 C 97 % 1006,5 hPa 0,6 l/m 47,7 km/h
W-SW (6 Bft)
- - 0 min 0 W/m 7,9 C 0,9 C 47,7 km/h
W-SW (6 Bft)
Durchschnitt _ 7,6 C 90 % 999,8 hPa #5,4 l/m 29,2 km/h (5 Bft) SW - #0 min. 0 W/m 6,0 C -2,4 C 29,2 km/h (5 Bft)
copyright by Holger Just